Time;durP1;ratioP1;P1;durP2;ratioP2;P2;SDS_P1;SDS_P2;PMS_P1;PMS_P2;Temp;Humidity;BMP_temperature;BMP_pressure;BME280_temperature;BME280_humidity;BME280_pressure;Samples;Min_cycle;Max_cycle;Signal;HPM_P1;HPM_P2
2023/03/31 00:00:25;;;;;;;20.83;2.88;;;10.20;99.90;;;;;;5012473;28;19917;-84
2023/03/31 00:02:52;;;;;;;20.30;3.15;;;10.20;99.90;;;;;;4995310;28;20037;-84
2023/03/31 00:05:20;;;;;;;20.15;3.35;;;10.20;99.90;;;;;;4996123;28;20117;-85
2023/03/31 00:07:47;;;;;;;23.50;3.05;;;10.20;99.90;;;;;;4996130;28;20123;-85
2023/03/31 00:10:13;;;;;;;11.35;2.33;;;10.30;99.90;;;;;;5011930;28;20038;-85
2023/03/31 00:12:39;;;;;;;10.23;2.58;;;10.30;99.90;;;;;;5012425;28;20045;-85
2023/03/31 00:15:05;;;;;;;19.63;2.78;;;10.40;99.90;;;;;;4995551;28;20034;-85
2023/03/31 00:17:32;;;;;;;25.33;2.95;;;10.40;99.90;;;;;;5012227;28;20449;-85
2023/03/31 00:19:59;;;;;;;23.20;3.35;;;10.40;99.90;;;;;;4995582;28;20096;-84
2023/03/31 00:22:29;;;;;;;23.10;3.38;;;10.40;99.90;;;;;;5012134;28;20046;-85
2023/03/31 00:24:54;;;;;;;28.15;2.80;;;10.40;99.90;;;;;;4995885;28;20107;-85
2023/03/31 00:27:20;;;;;;;24.73;3.63;;;10.40;99.90;;;;;;5012002;28;20030;-85
2023/03/31 00:29:46;;;;;;;20.60;2.60;;;10.40;99.90;;;;;;5011830;28;20049;-85
2023/03/31 00:32:13;;;;;;;16.50;2.58;;;10.30;99.90;;;;;;4995530;28;20447;-85
2023/03/31 00:34:39;;;;;;;15.25;2.95;;;10.30;99.90;;;;;;5012028;28;20111;-85
2023/03/31 00:37:05;;;;;;;;;;;10.40;99.90;;;;;;5012248;28;20576;-85
2023/03/31 00:39:32;;;;;;;21.25;3.13;;;10.40;99.90;;;;;;4995621;28;19918;-85
2023/03/31 00:42:00;;;;;;;15.68;2.35;;;10.40;99.90;;;;;;5011833;28;20092;-85
2023/03/31 00:44:29;;;;;;;23.23;3.03;;;10.40;99.90;;;;;;5009671;28;20049;-84
2023/03/31 00:47:01;;;;;;;15.90;2.47;;;10.40;99.90;;;;;;5011278;28;20065;-84
2023/03/31 00:49:39;;;;;;;20.33;2.75;;;10.30;99.90;;;;;;5012189;28;20394;-85
2023/03/31 00:52:15;;;;;;;19.23;3.40;;;10.30;99.90;;;;;;5011453;28;20041;-85
2023/03/31 00:54:44;;;;;;;21.88;3.20;;;10.30;99.90;;;;;;5010251;28;20045;-85
2023/03/31 00:57:11;;;;;;;12.05;2.83;;;10.30;99.90;;;;;;5011748;28;20041;-85
2023/03/31 00:59:46;;;;;;;15.27;2.15;;;10.30;99.90;;;;;;5011806;28;20046;-85
2023/03/31 01:02:14;;;;;;;17.60;2.33;;;10.20;99.90;;;;;;5011243;28;20621;-85
2023/03/31 01:04:49;;;;;;;21.08;2.40;;;10.20;99.90;;;;;;4996186;28;20045;-85
2023/03/31 01:07:18;;;;;;;25.60;3.33;;;10.10;99.90;;;;;;5012254;28;20037;-85
2023/03/31 01:09:46;;;;;;;17.45;2.67;;;10.10;99.90;;;;;;5012179;28;20042;-85
2023/03/31 01:12:14;;;;;;;19.80;2.50;;;10.20;99.90;;;;;;5010850;28;20037;-84
2023/03/31 01:14:41;;;;;;;20.77;2.90;;;10.10;99.90;;;;;;5012492;28;20490;-84
2023/03/31 01:17:08;;;;;;;29.60;2.92;;;10.10;99.90;;;;;;5011579;28;20052;-85
2023/03/31 01:19:55;;;;;;;17.55;2.55;;;10.00;99.90;;;;;;4995997;28;20081;-84
2023/03/31 01:22:21;;;;;;;;;;;10.00;99.90;;;;;;5012366;28;20034;-85
2023/03/31 01:25:18;;;;;;;19.88;2.90;;;10.00;99.90;;;;;;4993581;28;19917;-84
2023/03/31 01:28:07;;;;;;;17.97;2.50;;;10.00;99.90;;;;;;5011972;28;20447;-84
2023/03/31 01:30:36;;;;;;;8.40;2.03;;;9.90;99.90;;;;;;5011773;28;20494;-85
2023/03/31 01:33:35;;;;;;;14.73;2.63;;;9.90;99.90;;;;;;5011293;28;20525;-85
2023/03/31 01:36:29;;;;;;;22.65;2.97;;;10.00;99.90;;;;;;5011683;28;20057;-85
2023/03/31 01:39:22;;;;;;;15.40;2.38;;;9.90;99.90;;;;;;5011252;28;20034;-84
2023/03/31 01:42:15;;;;;;;16.35;2.50;;;9.80;99.90;;;;;;5011823;28;20517;-85
2023/03/31 01:44:43;;;;;;;16.55;3.17;;;9.80;99.90;;;;;;5011136;28;20038;-85
2023/03/31 01:47:24;;;;;;;22.30;2.53;;;9.80;99.90;;;;;;5011136;28;20069;-84
2023/03/31 01:50:09;;;;;;;17.63;2.47;;;9.80;99.90;;;;;;5010524;28;20034;-85
2023/03/31 01:53:01;;;;;;;18.45;2.22;;;9.80;99.90;;;;;;5011481;28;20030;-85
2023/03/31 01:55:39;;;;;;;22.77;3.45;;;9.80;99.90;;;;;;4993105;28;20104;-85
2023/03/31 01:58:12;;;;;;;14.50;2.60;;;9.70;99.90;;;;;;4994028;28;20038;-85
2023/03/31 02:00:44;;;;;;;20.48;3.03;;;9.60;99.90;;;;;;5009185;28;20064;-85
2023/03/31 02:03:31;;;;;;;12.55;2.53;;;9.60;99.90;;;;;;5010891;28;20083;-85
2023/03/31 02:06:07;;;;;;;;;;;9.60;99.90;;;;;;5010908;28;20037;-84
2023/03/31 02:08:40;;;;;;;11.07;2.50;;;9.50;99.90;;;;;;4994047;28;19924;-84
2023/03/31 02:11:06;;;;;;;18.65;2.58;;;9.50;99.90;;;;;;5010029;28;20046;-84
2023/03/31 02:13:33;;;;;;;13.43;2.30;;;9.50;99.90;;;;;;5010405;28;20060;-85
2023/03/31 02:16:04;;;;;;;19.60;2.65;;;9.50;99.90;;;;;;4994044;28;20045;-84
2023/03/31 02:18:32;;;;;;;20.00;3.10;;;9.50;99.90;;;;;;5010521;28;20046;-84
2023/03/31 02:20:59;;;;;;;21.70;2.83;;;9.50;99.90;;;;;;5010075;28;20045;-84
2023/03/31 02:23:30;;;;;;;23.20;2.97;;;9.50;99.90;;;;;;5010533;28;20447;-85
2023/03/31 02:26:12;;;;;;;12.88;2.00;;;9.50;99.90;;;;;;5010927;28;20487;-84
2023/03/31 02:28:38;;;;;;;15.70;2.17;;;9.50;99.90;;;;;;4994106;28;20033;-84
2023/03/31 02:31:16;;;;;;;;;;;9.60;99.90;;;;;;5009642;28;20112;-84
2023/03/31 02:33:42;;;;;;;14.00;2.17;;;9.60;99.90;;;;;;4993740;28;19921;-84
2023/03/31 02:36:08;;;;;;;21.17;2.33;;;9.50;99.90;;;;;;5008398;28;20533;-85
2023/03/31 02:38:40;;;;;;;19.35;2.55;;;9.60;99.90;;;;;;5009070;28;20060;-84
2023/03/31 02:41:06;;;;;;;16.63;2.30;;;9.60;99.90;;;;;;5008808;28;20096;-85
2023/03/31 02:43:32;;;;;;;;;;;9.60;99.90;;;;;;5010234;28;20494;-84
2023/03/31 02:45:57;;;;;;;16.15;2.35;;;9.70;99.90;;;;;;5011532;28;19956;-84
2023/03/31 02:48:29;;;;;;;18.10;2.87;;;9.70;99.90;;;;;;5013853;28;20137;-84
2023/03/31 02:51:09;;;;;;;14.20;2.10;;;9.70;99.90;;;;;;5013805;28;20281;-84
2023/03/31 02:53:41;;;;;;;12.52;2.90;;;9.70;99.90;;;;;;5011467;28;20046;-85
2023/03/31 02:56:31;;;;;;;10.52;2.17;;;9.70;99.90;;;;;;5013374;28;20080;-85
2023/03/31 02:59:06;;;;;;;15.88;2.63;;;9.80;99.90;;;;;;5013529;28;20041;-85
2023/03/31 03:01:47;;;;;;;12.82;2.55;;;9.80;99.90;;;;;;5013244;28;20398;-84
2023/03/31 03:04:34;;;;;;;17.17;3.10;;;9.80;99.90;;;;;;5011331;28;20562;-85
2023/03/31 03:07:36;;;;;;;18.88;2.28;;;9.80;99.90;;;;;;5012179;28;20073;-85
2023/03/31 03:10:21;;;;;;;13.85;2.17;;;9.70;99.90;;;;;;5012235;28;20038;-85
2023/03/31 03:12:55;;;;;;;20.48;2.60;;;9.70;99.90;;;;;;5012667;28;20089;-84
2023/03/31 03:15:45;;;;;;;11.30;1.98;;;9.70;99.90;;;;;;5011352;28;20065;-85
2023/03/31 03:18:11;;;;;;;14.02;1.90;;;9.70;99.90;;;;;;5012607;28;20030;-85
2023/03/31 03:20:38;;;;;;;17.20;2.20;;;9.60;99.90;;;;;;5013051;28;20053;-84
2023/03/31 03:23:03;;;;;;;;;;;9.60;99.90;;;;;;5013360;28;20042;-84
2023/03/31 03:25:29;;;;;;;13.07;2.20;;;9.70;99.90;;;;;;5012642;28;19940;-84
2023/03/31 03:27:55;;;;;;;10.13;1.93;;;9.60;99.90;;;;;;5013118;28;20045;-84
2023/03/31 03:30:21;;;;;;;20.60;2.63;;;9.60;99.90;;;;;;4993966;28;20124;-84
2023/03/31 03:32:47;;;;;;;13.38;2.05;;;9.70;99.90;;;;;;4996823;28;20045;-84
2023/03/31 03:35:12;;;;;;;13.68;2.03;;;9.60;99.90;;;;;;5012626;28;20096;-85
2023/03/31 03:37:38;;;;;;;14.93;2.00;;;9.60;99.90;;;;;;4996560;28;20094;-84
2023/03/31 03:40:05;;;;;;;15.30;2.60;;;9.60;99.90;;;;;;5012800;28;20482;-85
2023/03/31 03:42:32;;;;;;;15.00;2.67;;;9.60;99.90;;;;;;5012261;28;20042;-84
2023/03/31 03:44:57;;;;;;;8.80;2.60;;;9.60;99.90;;;;;;5012080;28;20065;-85
2023/03/31 03:47:23;;;;;;;15.73;2.67;;;9.70;99.90;;;;;;5012606;28;20080;-85
2023/03/31 03:49:49;;;;;;;12.60;2.43;;;9.70;99.90;;;;;;5013021;28;20285;-85
2023/03/31 03:52:15;;;;;;;10.80;1.95;;;9.80;99.90;;;;;;5012193;28;20317;-85
2023/03/31 03:54:40;;;;;;;7.38;1.88;;;9.80;99.90;;;;;;4996112;28;20042;-85
2023/03/31 03:57:06;;;;;;;10.07;2.80;;;9.70;99.90;;;;;;4995654;28;20042;-85
2023/03/31 03:59:32;;;;;;;10.80;2.20;;;9.70;99.90;;;;;;5011932;28;20426;-85
2023/03/31 04:01:58;;;;;;;9.98;2.60;;;9.70;99.90;;;;;;5012095;28;20042;-85
2023/03/31 04:04:24;;;;;;;14.95;2.65;;;9.70;99.90;;;;;;4995866;28;20049;-85
2023/03/31 04:06:50;;;;;;;11.00;2.92;;;9.60;99.90;;;;;;4996609;28;20033;-85
2023/03/31 04:09:15;;;;;;;13.63;3.30;;;9.70;99.90;;;;;;4995965;28;20064;-85
2023/03/31 04:11:41;;;;;;;13.20;2.72;;;9.70;99.90;;;;;;4995886;28;20037;-85
2023/03/31 04:14:07;;;;;;;11.57;2.40;;;9.70;99.90;;;;;;5012825;28;20449;-85
2023/03/31 04:16:33;;;;;;;9.03;2.80;;;9.80;99.90;;;;;;4963953;28;20709;-84
2023/03/31 04:19:02;;;;;;;12.15;2.63;;;9.80;99.90;;;;;;5012782;28;20092;-85
2023/03/31 04:21:29;;;;;;;10.65;2.63;;;9.80;99.90;;;;;;5012458;28;20402;-84
2023/03/31 04:24:00;;;;;;;7.80;3.65;;;9.80;99.90;;;;;;5013012;28;20042;-84
2023/03/31 04:26:41;;;;;;;15.60;2.80;;;9.80;99.90;;;;;;5012601;28;20048;-85
2023/03/31 04:29:15;;;;;;;7.30;3.13;;;9.80;99.90;;;;;;5011947;28;20034;-84
2023/03/31 04:31:41;;;;;;;11.63;3.47;;;9.90;99.90;;;;;;5015462;28;20042;-84
2023/03/31 04:34:12;;;;;;;7.55;2.83;;;9.80;99.90;;;;;;5013359;28;20089;-84
2023/03/31 04:36:47;;;;;;;8.75;3.42;;;9.80;99.90;;;;;;5012985;28;20053;-84
2023/03/31 04:39:17;;;;;;;12.65;4.00;;;10.00;99.90;;;;;;4996542;28;20125;-82
2023/03/31 04:41:43;;;;;;;10.38;3.80;;;9.90;99.90;;;;;;5013289;28;21489;-84
2023/03/31 04:44:09;;;;;;;;;;;9.90;99.90;;;;;;5015243;28;20518;-83
2023/03/31 04:46:35;;;;;;;13.00;4.20;;;9.90;99.90;;;;;;5012858;28;20032;-83
2023/03/31 04:49:01;;;;;;;13.55;4.00;;;9.80;99.90;;;;;;4997319;28;20045;-83
2023/03/31 04:51:27;;;;;;;12.93;4.53;;;9.80;99.90;;;;;;4997356;28;20037;-83
2023/03/31 04:53:53;;;;;;;10.57;3.95;;;9.80;99.90;;;;;;4997387;28;20042;-83
2023/03/31 04:56:19;;;;;;;12.10;4.45;;;9.80;99.90;;;;;;4997559;28;20544;-84
2023/03/31 04:58:45;;;;;;;12.98;4.80;;;9.80;99.90;;;;;;5013472;28;20042;-84
2023/03/31 05:01:12;;;;;;;13.13;4.13;;;9.80;99.90;;;;;;5013191;28;20121;-84
2023/03/31 05:03:38;;;;;;;15.60;4.82;;;9.80;99.90;;;;;;5013564;28;20050;-84
2023/03/31 05:06:05;;;;;;;14.05;5.35;;;9.70;99.90;;;;;;4997918;28;20119;-84
2023/03/31 05:08:30;;;;;;;13.23;5.05;;;9.70;99.90;;;;;;5014124;28;20029;-84
2023/03/31 05:10:56;;;;;;;13.50;4.28;;;9.70;99.90;;;;;;5017931;28;20034;-84
2023/03/31 05:13:22;;;;;;;11.57;5.05;;;9.70;99.90;;;;;;5018782;28;20065;-83
2023/03/31 05:15:50;;;;;;;16.73;4.90;;;9.70;99.90;;;;;;5018088;28;20145;-83
2023/03/31 05:18:17;;;;;;;10.63;4.30;;;9.70;99.90;;;;;;5001939;28;20532;-83
2023/03/31 05:20:43;;;;;;;11.02;3.28;;;9.70;99.90;;;;;;5003137;28;20050;-83
2023/03/31 05:23:08;;;;;;;15.48;5.07;;;9.80;99.90;;;;;;4997816;28;20049;-83
2023/03/31 05:25:34;;;;;;;12.55;4.30;;;9.80;99.90;;;;;;5014264;28;20041;-83
2023/03/31 05:28:01;;;;;;;13.57;4.28;;;9.70;99.90;;;;;;5014568;28;20038;-83
2023/03/31 05:30:28;;;;;;;15.15;4.72;;;9.70;99.90;;;;;;5014517;28;20580;-83
2023/03/31 05:32:54;;;;;;;15.63;4.75;;;9.80;99.90;;;;;;5014030;28;20052;-84
2023/03/31 05:35:21;;;;;;;22.15;4.57;;;9.80;99.90;;;;;;5013534;28;20085;-84
2023/03/31 05:37:47;;;;;;;13.10;4.40;;;9.80;99.90;;;;;;5012522;28;20053;-84
2023/03/31 05:40:13;;;;;;;13.32;3.80;;;9.80;99.90;;;;;;5011933;28;20046;-84
2023/03/31 05:42:38;;;;;;;14.07;3.70;;;9.80;99.90;;;;;;4995858;28;20038;-84
2023/03/31 05:45:05;;;;;;;8.55;3.13;;;9.80;99.90;;;;;;5012364;28;20117;-84
2023/03/31 05:47:31;;;;;;;18.17;4.32;;;9.80;99.90;;;;;;5012089;28;20034;-84
2023/03/31 05:49:57;;;;;;;13.48;3.67;;;9.90;99.90;;;;;;4996078;28;20109;-84
2023/03/31 05:52:23;;;;;;;7.78;3.25;;;9.80;99.90;;;;;;5011934;28;20137;-84
2023/03/31 05:54:49;;;;;;;8.35;3.55;;;9.90;99.90;;;;;;5012926;28;20073;-84
2023/03/31 05:57:14;;;;;;;9.00;3.58;;;9.90;99.90;;;;;;5012446;28;20418;-84
2023/03/31 05:59:41;;;;;;;11.10;2.95;;;9.90;99.90;;;;;;5012749;28;20033;-84
2023/03/31 06:02:07;;;;;;;11.85;3.03;;;9.90;99.90;;;;;;4996410;28;20406;-84
2023/03/31 06:04:33;;;;;;;9.35;3.05;;;9.90;99.90;;;;;;5012034;28;20069;-84
2023/03/31 06:06:59;;;;;;;11.10;2.78;;;9.90;99.90;;;;;;4997744;28;20053;-84
2023/03/31 06:09:25;;;;;;;9.55;2.60;;;9.90;99.90;;;;;;4996865;28;20048;-87
2023/03/31 06:11:51;;;;;;;;;;;9.90;99.90;;;;;;5013622;28;20045;-85
2023/03/31 06:14:17;;;;;;;12.00;3.78;;;9.90;99.90;;;;;;4996588;28;20032;-85
2023/03/31 06:16:43;;;;;;;9.27;3.53;;;9.80;99.90;;;;;;5013008;28;20125;-84
2023/03/31 06:19:08;;;;;;;11.38;3.22;;;9.80;99.90;;;;;;4994735;28;20050;-79
2023/03/31 06:21:34;;;;;;;9.18;3.20;;;9.80;99.90;;;;;;5009712;28;20133;-79
2023/03/31 06:24:00;;;;;;;12.33;3.20;;;9.80;99.90;;;;;;4993942;28;20061;-80
2023/03/31 06:26:26;;;;;;;9.13;3.28;;;9.80;99.90;;;;;;5009975;28;20335;-79
2023/03/31 06:28:52;;;;;;;;;;;9.80;99.90;;;;;;5010360;28;20034;-79
2023/03/31 06:31:20;;;;;;;11.63;2.90;;;9.80;99.90;;;;;;5009693;28;19924;-79
2023/03/31 06:33:47;;;;;;;12.02;3.08;;;9.80;99.90;;;;;;5007221;28;20506;-79
2023/03/31 06:36:15;;;;;;;9.52;3.15;;;9.80;99.90;;;;;;5010024;28;20076;-79
2023/03/31 06:38:41;;;;;;;13.60;3.38;;;9.80;99.90;;;;;;5009361;28;20041;-79
2023/03/31 06:41:10;;;;;;;9.70;3.08;;;9.80;99.90;;;;;;5010002;28;20493;-79
2023/03/31 06:43:36;;;;;;;8.60;3.17;;;9.80;99.90;;;;;;4993518;28;20041;-79
2023/03/31 06:46:02;;;;;;;10.02;3.30;;;9.80;99.90;;;;;;5009934;28;20034;-79
2023/03/31 06:48:28;;;;;;;;;;;9.80;99.90;;;;;;5010483;28;20419;-79
2023/03/31 06:50:55;;;;;;;7.72;2.85;;;9.80;99.90;;;;;;4992964;28;20052;-79
2023/03/31 06:53:21;;;;;;;14.00;3.30;;;9.80;99.90;;;;;;5009493;28;20073;-79
2023/03/31 06:55:46;;;;;;;11.90;3.17;;;9.80;99.90;;;;;;4992899;28;20073;-79
2023/03/31 06:58:12;;;;;;;10.00;2.65;;;9.80;99.90;;;;;;5009576;28;20045;-79
2023/03/31 07:00:39;;;;;;;8.80;2.85;;;9.80;99.90;;;;;;4993044;28;20479;-79
2023/03/31 07:03:07;;;;;;;7.85;2.83;;;9.80;99.90;;;;;;4993673;28;20437;-79
2023/03/31 07:05:33;;;;;;;7.43;2.70;;;9.80;99.90;;;;;;5009637;28;20525;-79
2023/03/31 07:07:59;;;;;;;7.82;2.72;;;9.80;99.90;;;;;;5009983;28;20033;-79
2023/03/31 07:10:27;;;;;;;10.70;3.00;;;9.80;99.90;;;;;;4993328;28;20487;-79
2023/03/31 07:12:53;;;;;;;9.05;3.63;;;9.90;99.90;;;;;;5009305;28;20418;-79
2023/03/31 07:15:20;;;;;;;9.82;3.03;;;9.80;99.90;;;;;;4993058;28;20048;-79
2023/03/31 07:17:49;;;;;;;;;;;9.80;99.90;;;;;;4993394;28;20041;-79
2023/03/31 07:20:17;;;;;;;12.13;3.47;;;9.80;99.90;;;;;;5009482;28;20382;-79
2023/03/31 07:22:48;;;;;;;7.38;2.90;;;9.80;99.90;;;;;;4993036;28;20042;-79
2023/03/31 07:25:17;;;;;;;6.47;2.58;;;9.80;99.90;;;;;;4993410;28;20466;-79
2023/03/31 07:27:43;;;;;;;4.65;2.70;;;9.90;99.90;;;;;;5007227;28;20070;-80
2023/03/31 07:30:17;;;;;;;11.40;3.15;;;9.80;99.90;;;;;;5009271;28;20076;-79
2023/03/31 07:32:46;;;;;;;6.97;2.58;;;9.90;99.90;;;;;;5011897;28;20526;-80
2023/03/31 07:35:12;;;;;;;7.28;2.70;;;9.90;99.90;;;;;;5010311;28;20124;-80
2023/03/31 07:37:40;;;;;;;7.75;2.35;;;10.00;99.90;;;;;;4980193;28;20046;-81
2023/03/31 07:40:06;;;;;;;7.18;2.47;;;10.00;99.90;;;;;;5012990;28;20042;-78
2023/03/31 07:42:35;;;;;;;8.73;2.75;;;10.00;99.90;;;;;;5012820;28;20053;-77
2023/03/31 07:45:01;;;;;;;6.80;2.45;;;10.00;99.90;;;;;;4996514;28;20040;-77
2023/03/31 07:47:27;;;;;;;6.35;2.85;;;10.00;99.90;;;;;;5012588;28;20457;-77
2023/03/31 07:49:53;;;;;;;10.20;2.95;;;10.00;99.90;;;;;;5012003;28;20141;-77
2023/03/31 07:52:19;;;;;;;6.97;2.28;;;10.00;99.90;;;;;;5012415;28;20041;-77
2023/03/31 07:54:45;;;;;;;6.75;2.35;;;10.00;99.90;;;;;;5012041;28;20090;-76
2023/03/31 07:57:11;;;;;;;;;;;10.00;99.90;;;;;;5013000;28;20060;-76
2023/03/31 07:59:37;;;;;;;7.90;2.28;;;10.00;99.90;;;;;;5011952;28;19917;-77
2023/03/31 08:02:03;;;;;;;5.67;2.63;;;10.00;99.90;;;;;;4995807;28;20045;-77
2023/03/31 08:04:28;;;;;;;6.57;2.13;;;10.00;99.90;;;;;;4995844;28;20293;-76
2023/03/31 08:06:54;;;;;;;7.28;2.00;;;10.00;99.90;;;;;;5013465;28;20281;-77
2023/03/31 08:09:21;;;;;;;4.55;2.28;;;10.00;99.90;;;;;;5009327;28;20042;-77
2023/03/31 08:11:47;;;;;;;4.50;1.60;;;9.90;99.90;;;;;;5009815;28;20064;-78
2023/03/31 08:14:13;;;;;;;7.57;2.03;;;9.90;99.90;;;;;;4995450;28;20042;-77
2023/03/31 08:16:39;;;;;;;6.63;2.03;;;9.90;99.90;;;;;;5010040;28;20053;-77
2023/03/31 08:19:05;;;;;;;3.88;1.67;;;9.90;99.90;;;;;;5010871;28;20415;-77
2023/03/31 08:21:31;;;;;;;8.65;2.00;;;9.90;99.90;;;;;;5008892;28;20056;-77
2023/03/31 08:23:57;;;;;;;7.57;2.17;;;9.90;99.90;;;;;;5011218;28;20034;-77
2023/03/31 08:26:24;;;;;;;4.20;1.77;;;9.90;99.90;;;;;;5011563;28;20042;-78
2023/03/31 08:28:51;;;;;;;5.32;1.75;;;9.90;99.90;;;;;;5011335;28;20053;-78
2023/03/31 08:31:18;;;;;;;5.93;1.83;;;9.90;99.90;;;;;;5011674;28;20452;-77
2023/03/31 08:33:45;;;;;;;7.30;2.10;;;9.90;99.90;;;;;;5011095;28;20124;-79
2023/03/31 08:36:12;;;;;;;6.25;2.33;;;9.80;99.90;;;;;;5011271;28;20136;-78
2023/03/31 08:38:40;;;;;;;8.90;2.58;;;9.90;99.90;;;;;;4995619;28;20112;-78
2023/03/31 08:41:27;;;;;;;6.03;2.15;;;9.90;99.90;;;;;;5011502;28;20069;-78
2023/03/31 08:43:55;;;;;;;7.47;2.10;;;9.90;99.90;;;;;;5009710;28;20033;-79
2023/03/31 08:46:22;;;;;;;9.43;2.13;;;9.90;99.90;;;;;;4995063;28;20558;-78
2023/03/31 08:48:53;;;;;;;6.05;1.85;;;9.90;99.90;;;;;;4994632;28;20044;-79
2023/03/31 08:51:27;;;;;;;4.22;2.15;;;10.00;99.90;;;;;;5011212;28;20034;-78
2023/03/31 08:54:26;;;;;;;3.75;2.10;;;10.00;99.90;;;;;;5011043;28;20490;-78
2023/03/31 08:56:52;;;;;;;8.50;2.78;;;10.10;99.90;;;;;;4996959;28;20145;-78
2023/03/31 08:59:30;;;;;;;8.00;2.38;;;10.20;99.90;;;;;;5010794;28;20056;-78
2023/03/31 09:02:17;;;;;;;5.53;1.95;;;10.20;99.90;;;;;;5010847;28;20046;-78
2023/03/31 09:04:58;;;;;;;11.25;2.83;;;10.30;99.90;;;;;;5011093;28;20121;-78
2023/03/31 09:07:45;;;;;;;6.15;2.13;;;10.30;99.90;;;;;;5011238;28;20557;-78
2023/03/31 09:10:29;;;;;;;;;;;10.30;99.90;;;;;;5011221;28;20061;-76
2023/03/31 09:13:33;;;;;;;7.28;2.80;;;10.40;99.90;;;;;;5007433;28;19999;-76
2023/03/31 09:16:04;;;;;;;7.38;2.20;;;10.40;99.90;;;;;;5009125;28;20394;-77
2023/03/31 09:18:37;;;;;;;7.78;2.63;;;10.40;99.90;;;;;;5007565;28;20045;-76
2023/03/31 09:21:27;;;;;;;8.38;2.47;;;10.50;99.90;;;;;;4996324;28;20533;-76
2023/03/31 09:24:11;;;;;;;9.55;2.75;;;10.40;99.90;;;;;;5004865;28;20181;-77
2023/03/31 09:26:51;;;;;;;5.35;2.13;;;10.50;99.90;;;;;;4991569;28;20107;-76
2023/03/31 09:29:23;;;;;;;5.25;2.17;;;10.50;99.90;;;;;;5007298;28;20037;-77
2023/03/31 09:31:49;;;;;;;9.00;2.95;;;10.50;99.90;;;;;;5005620;28;20046;-76
2023/03/31 09:34:18;;;;;;;;;;;10.50;99.90;;;;;;5008831;28;20437;-76
2023/03/31 09:36:44;;;;;;;7.00;2.15;;;10.60;99.90;;;;;;5008002;28;19957;-76
2023/03/31 09:39:14;;;;;;;7.55;2.30;;;10.60;99.90;;;;;;5005740;28;20434;-77
2023/03/31 09:41:46;;;;;;;12.25;2.80;;;10.60;99.90;;;;;;5007829;28;20506;-77
2023/03/31 09:44:35;;;;;;;7.18;2.88;;;10.60;99.90;;;;;;5006788;28;20037;-76
2023/03/31 09:47:02;;;;;;;5.60;2.78;;;10.70;99.90;;;;;;5005241;28;20073;-76
2023/03/31 09:49:35;;;;;;;5.90;2.33;;;10.70;99.90;;;;;;5006314;28;20199;-77
2023/03/31 09:52:16;;;;;;;8.05;2.45;;;10.80;99.90;;;;;;5005372;28;20073;-77
2023/03/31 09:54:54;;;;;;;6.85;2.53;;;10.80;99.90;;;;;;4989311;28;20208;-77
2023/03/31 09:57:29;;;;;;;9.13;2.78;;;10.80;99.90;;;;;;5007943;28;20041;-77
2023/03/31 10:00:13;;;;;;;9.15;2.38;;;10.90;99.90;;;;;;5006186;28;20176;-77
2023/03/31 10:02:48;;;;;;;5.40;2.63;;;11.00;99.90;;;;;;5007598;28;20065;-77
2023/03/31 10:05:37;;;;;;;5.93;2.90;;;11.00;99.90;;;;;;5008088;28;20058;-78
2023/03/31 10:08:20;;;;;;;6.10;2.70;;;11.00;99.90;;;;;;4991303;28;20092;-78
2023/03/31 10:11:06;;;;;;;5.28;2.22;;;11.00;99.90;;;;;;5006100;28;20498;-77
2023/03/31 10:14:05;;;;;;;5.20;2.55;;;11.00;99.90;;;;;;5007849;28;20100;-78
2023/03/31 10:16:49;;;;;;;5.95;1.92;;;11.10;99.90;;;;;;4986773;28;20104;-77
2023/03/31 10:19:15;;;;;;;5.63;1.70;;;11.10;99.90;;;;;;5007686;28;20067;-77
2023/03/31 10:21:45;;;;;;;7.27;2.23;;;11.10;99.90;;;;;;5007120;28;20113;-77
2023/03/31 10:24:16;;;;;;;6.35;2.10;;;11.20;99.90;;;;;;5005264;28;20343;-77
2023/03/31 10:26:44;;;;;;;5.10;1.42;;;11.10;99.90;;;;;;4992058;28;20030;-77
2023/03/31 10:29:12;;;;;;;4.43;1.52;;;11.10;99.90;;;;;;4990344;28;20663;-77
2023/03/31 10:31:38;;;;;;;5.15;1.92;;;11.10;99.90;;;;;;5006147;28;20054;-77
2023/03/31 10:34:15;;;;;;;5.60;2.28;;;11.00;99.90;;;;;;5005072;28;20046;-77
2023/03/31 10:36:49;;;;;;;;;;;11.00;99.90;;;;;;5008410;28;20038;-78
2023/03/31 10:39:16;;;;;;;6.57;2.15;;;11.00;99.90;;;;;;5005368;28;19917;-78
2023/03/31 10:45:29;;;;;;;4.07;2.08;;;11.10;99.90;;;;;;5021585;23;20104;-77
2023/03/31 10:47:57;;;;;;;9.48;2.17;;;11.10;99.90;;;;;;5000812;28;20125;-77
2023/03/31 10:50:35;;;;;;;10.43;2.50;;;11.20;99.90;;;;;;5001174;28;20046;-78
2023/03/31 10:53:09;;;;;;;3.22;1.60;;;11.30;99.90;;;;;;4981104;28;20038;-78
2023/03/31 10:55:59;;;;;;;4.60;1.58;;;11.40;99.90;;;;;;4999718;28;20035;-80
2023/03/31 10:58:51;;;;;;;7.45;2.20;;;11.50;99.90;;;;;;4999882;28;20050;-77
2023/03/31 11:01:56;;;;;;;3.75;2.08;;;11.50;99.90;;;;;;4993105;28;20053;-78
2023/03/31 11:04:28;;;;;;;4.93;1.70;;;11.60;99.90;;;;;;5002829;28;20038;-78
2023/03/31 11:07:03;;;;;;;6.97;1.80;;;11.70;99.90;;;;;;4989442;28;20041;-78
2023/03/31 11:09:54;;;;;;;5.72;2.10;;;11.70;99.90;;;;;;5008443;28;20042;-78
2023/03/31 11:12:45;;;;;;;4.93;1.90;;;11.70;99.90;;;;;;5003512;28;20125;-78
2023/03/31 11:15:17;;;;;;;6.25;1.70;;;11.80;99.90;;;;;;5001731;28;20042;-78
2023/03/31 11:17:52;;;;;;;4.35;1.90;;;11.90;99.90;;;;;;4989677;28;20391;-78
2023/03/31 11:20:55;;;;;;;7.03;1.80;;;12.00;99.90;;;;;;5004392;28;20403;-77
2023/03/31 11:23:52;;;;;;;4.97;1.95;;;12.20;99.90;;;;;;4989286;28;20052;-77
2023/03/31 11:26:27;;;;;;;6.65;1.98;;;12.30;99.90;;;;;;5000885;28;20050;-77
2023/03/31 11:29:21;;;;;;;3.28;1.70;;;12.40;99.90;;;;;;5003048;28;20060;-78
2023/03/31 11:32:11;;;;;;;5.65;2.05;;;12.50;99.90;;;;;;5002390;28;20046;-78
2023/03/31 11:35:15;;;;;;;5.53;1.70;;;12.70;99.90;;;;;;4998647;28;20042;-78
2023/03/31 11:37:41;;;;;;;3.85;1.60;;;13.00;99.90;;;;;;4994739;28;20042;-78
2023/03/31 11:40:16;;;;;;;10.45;1.90;;;13.10;99.90;;;;;;4987282;28;20386;-78
2023/03/31 11:42:53;;;;;;;6.97;1.65;;;13.20;99.90;;;;;;5000563;28;20042;-78
2023/03/31 11:45:43;;;;;;;8.00;1.55;;;13.20;99.90;;;;;;5003047;28;20038;-78
2023/03/31 11:48:35;;;;;;;5.57;1.40;;;13.20;99.90;;;;;;5002391;28;20054;-78
2023/03/31 11:51:04;;;;;;;7.78;1.35;;;13.20;99.90;;;;;;5000286;28;20065;-78
2023/03/31 11:53:34;;;;;;;5.35;1.63;;;13.10;99.90;;;;;;5000966;28;20492;-78
2023/03/31 11:56:01;;;;;;;5.43;1.48;;;13.00;99.90;;;;;;4986242;28;20121;-78
2023/03/31 11:58:41;;;;;;;7.70;1.33;;;12.90;99.90;;;;;;5000720;28;20046;-78
2023/03/31 12:01:24;;;;;;;4.32;1.05;;;12.80;99.90;;;;;;5009959;28;20053;-77
2023/03/31 12:04:05;;;;;;;5.28;1.40;;;12.70;99.90;;;;;;4983994;28;20042;-74
2023/03/31 12:06:38;;;;;;;2.72;1.13;;;12.50;99.90;;;;;;4997718;28;20035;-75
2023/03/31 12:09:41;;;;;;;4.90;1.20;;;12.20;99.90;;;;;;5006115;28;20041;-76
2023/03/31 12:12:18;;;;;;;4.55;1.35;;;12.00;99.90;;;;;;5002272;28;20034;-76
2023/03/31 12:14:59;;;;;;;5.78;1.55;;;12.00;99.90;;;;;;5003086;28;20049;-76
2023/03/31 12:17:28;;;;;;;4.47;1.70;;;12.00;99.90;;;;;;4985710;28;20038;-75
2023/03/31 12:19:58;;;;;;;6.30;2.17;;;12.00;99.90;;;;;;4984635;28;20089;-76
2023/03/31 12:22:34;;;;;;;8.38;1.88;;;12.00;99.90;;;;;;4986544;28;20041;-76
2023/03/31 12:25:01;;;;;;;4.78;1.25;;;12.00;99.90;;;;;;5005969;28;20117;-78
2023/03/31 12:27:40;;;;;;;10.55;2.17;;;12.00;99.90;;;;;;5005981;28;20030;-77
2023/03/31 12:30:12;;;;;;;3.33;1.42;;;12.00;99.90;;;;;;5007641;28;20390;-78
2023/03/31 12:32:51;;;;;;;6.53;1.90;;;12.10;99.90;;;;;;5003150;28;20096;-77
2023/03/31 12:35:17;;;;;;;5.40;1.30;;;12.10;99.90;;;;;;5003966;28;20128;-77
2023/03/31 12:38:07;;;;;;;3.50;1.40;;;12.10;99.90;;;;;;4982095;28;20122;-77
2023/03/31 12:40:47;;;;;;;7.97;1.60;;;12.10;99.90;;;;;;5004552;28;20708;-81
2023/03/31 12:43:21;;;;;;;5.05;1.83;;;12.20;99.90;;;;;;5001148;28;20050;-82
2023/03/31 12:46:03;;;;;;;5.45;1.77;;;12.80;99.90;;;;;;4995857;28;20093;-82
2023/03/31 12:48:48;;;;;;;6.03;1.70;;;12.50;99.90;;;;;;5000277;28;20125;-82
2023/03/31 12:51:23;;;;;;;8.80;2.40;;;12.60;99.90;;;;;;5006119;28;20133;-82
2023/03/31 12:54:07;;;;;;;8.18;2.10;;;12.70;99.90;;;;;;5006073;28;20371;-81
2023/03/31 12:57:12;;;;;;;12.27;2.35;;;12.80;99.90;;;;;;5003569;28;20050;-84
2023/03/31 12:59:43;;;;;;;5.75;1.60;;;12.90;99.90;;;;;;5003918;28;20045;-83
2023/03/31 13:02:09;;;;;;;5.70;2.25;;;12.90;99.90;;;;;;5010097;28;20038;-84
2023/03/31 13:04:38;;;;;;;6.80;1.80;;;13.00;99.90;;;;;;4988502;28;20096;-84
2023/03/31 13:07:12;;;;;;;8.45;1.80;;;13.10;99.90;;;;;;5000572;28;20065;-84
2023/03/31 13:09:41;;;;;;;5.68;1.95;;;13.10;99.90;;;;;;5007830;28;20044;-84
2023/03/31 13:12:31;;;;;;;6.80;2.20;;;13.00;99.90;;;;;;5002791;28;20053;-85
2023/03/31 13:15:00;;;;;;;5.72;2.30;;;12.90;99.90;;;;;;5000249;28;20103;-85
2023/03/31 13:17:26;;;;;;;9.35;1.67;;;12.90;99.90;;;;;;5003164;28;20046;-84
2023/03/31 13:19:53;;;;;;;4.63;1.70;;;13.20;99.90;;;;;;4984418;28;20041;-85